メインページ
METAR-TAF:

METAR-TAF

空港 :

ベイルート, レバノン

緯度: 33-49N, 経度: 035-29E, 海抜: 29m

現時点の気象観測

当レポートは39分前の15:00(UTC)に作成
西の風 5kt、西/南西から北西の間で変化する
気温 28°C
湿度 70%
気圧 1009 hPa
視程: 8000m
晴天

METAR: OLBA 251500Z 28005KT 240V320 8000 SKC 28/22 Q1009

時間: 18:39 (15:39 UTC)


TAF: 見つかりません

4,000以上の空港の気象観測と天気予報(METAR報とTAF報)

利用可能な観測所は地図上に黄色い丸と赤い丸で示す。

丸の上にカーソルを重ねると観測所名を参照できる。

次にクリックすると気象観測と天気予報を参照できる。

マップの切り替え:黒色「×」印の緑ボタンをクリックして拡大、「-」印の緑ボタンをクリックして縮小、緑色の三角印をクリックして隣りの地図に切り替え


METAR-TAF: